Time;durP1;ratioP1;P1;durP2;ratioP2;P2;SDS_P1;SDS_P2;PMS_P1;PMS_P2;Temp;Humidity;BMP_temperature;BMP_pressure;BME280_temperature;BME280_humidity;BME280_pressure;Samples;Min_cycle;Max_cycle;Signal;HPM_P1;HPM_P2
2022/10/20 00:02:24;;;;;;;24.27;18.07;;;15.40;91.20;;;15.73;58.09;95423.97;5086359;28;20514;-54
2022/10/20 00:04:52;;;;;;;23.10;17.80;;;15.40;91.40;;;15.75;58.11;95416.69;5085762;28;20489;-56
2022/10/20 00:07:19;;;;;;;25.57;17.90;;;15.40;91.40;;;15.77;58.25;95416.56;5086063;28;20557;-56
2022/10/20 00:09:46;;;;;;;25.70;18.57;;;15.40;91.60;;;15.76;58.48;95410.38;5086065;28;20470;-56
2022/10/20 00:12:14;;;;;;;26.83;17.60;;;15.40;91.60;;;15.76;58.29;95422.81;5085524;28;20892;-56
2022/10/20 00:14:42;;;;;;;29.23;17.70;;;15.40;91.70;;;15.75;57.82;95416.69;5086178;28;20469;-54
2022/10/20 00:17:09;;;;;;;22.93;16.77;;;15.40;91.40;;;15.74;57.95;95415.03;5086350;28;20462;-56
2022/10/20 00:19:37;;;;;;;23.27;16.57;;;15.40;91.40;;;15.74;57.88;95417.69;5083786;28;20547;-54
2022/10/20 00:22:04;;;;;;;20.27;14.97;;;15.40;91.70;;;15.72;57.70;95414.38;5086002;28;20519;-57
2022/10/20 00:24:31;;;;;;;18.83;14.47;;;15.40;91.20;;;15.73;57.48;95415.19;5085617;28;21038;-54
2022/10/20 00:26:58;;;;;;;17.37;14.93;;;15.40;90.90;;;15.72;57.51;95413.50;5085705;28;20834;-54
2022/10/20 00:29:26;;;;;;;19.70;14.63;;;15.40;91.00;;;15.72;57.28;95403.75;5085714;28;20476;-56
2022/10/20 00:31:54;;;;;;;18.83;13.53;;;15.40;91.00;;;15.72;57.21;95402.91;5078489;28;20458;-54
2022/10/20 00:34:22;;;;;;;19.03;14.43;;;15.40;90.90;;;15.68;57.08;95415.66;5086157;28;20474;-55
2022/10/20 00:36:49;;;;;;;16.97;14.07;;;15.40;90.70;;;15.68;57.06;95413.00;5085971;28;20689;-55
2022/10/20 00:39:17;;;;;;;20.03;13.90;;;15.40;90.60;;;15.67;57.08;95405.22;5085416;28;20993;-56
2022/10/20 00:41:44;;;;;;;24.27;11.97;;;15.40;90.60;;;15.66;56.94;95403.53;5085174;28;20458;-55
2022/10/20 00:44:52;;;;;;;15.23;13.10;;;15.40;90.60;;;15.65;57.04;95400.06;5085087;28;20993;-53
2022/10/20 00:47:28;;;;;;;14.97;12.40;;;15.30;90.50;;;15.64;56.70;95393.09;5084968;28;20455;-54
2022/10/20 00:49:55;;;;;;;16.30;11.73;;;15.30;90.20;;;15.63;56.76;95404.69;5085625;28;20610;-53
2022/10/20 00:52:22;;;;;;;14.30;12.80;;;15.30;90.40;;;15.61;56.60;95393.41;5081761;28;20817;-56
2022/10/20 00:54:50;;;;;;;17.37;12.00;;;15.30;90.10;;;15.58;56.25;95397.22;5083969;28;20532;-56
2022/10/20 00:57:17;;;;;;;16.53;12.30;;;15.30;90.00;;;15.56;56.21;95395.69;5083106;28;20926;-55
2022/10/20 00:59:44;;;;;;;15.33;11.87;;;15.30;89.60;;;15.53;56.45;95388.88;5081577;28;20480;-55
2022/10/20 01:02:12;;;;;;;14.60;11.40;;;15.30;90.00;;;15.51;56.21;95393.53;5085532;28;20454;-56
2022/10/20 01:04:40;;;;;;;16.70;10.43;;;15.20;89.60;;;15.50;56.11;95405.09;5085443;28;20599;-54
2022/10/20 01:07:07;;;;;;;13.43;9.37;;;15.20;89.40;;;15.51;55.82;95405.97;5085076;28;20979;-54
2022/10/20 01:09:35;;;;;;;13.33;9.57;;;15.20;89.10;;;15.49;55.78;95397.31;5084894;28;20530;-55
2022/10/20 01:12:12;;;;;;;12.47;9.87;;;15.20;88.90;;;15.48;56.01;95400.97;5078209;28;20441;-56
2022/10/20 01:14:44;;;;;;;17.17;10.90;;;15.20;88.80;;;15.46;55.41;95405.56;5083465;28;20881;-53
2022/10/20 01:17:19;;;;;;;8.87;8.03;;;15.20;88.50;;;15.44;55.51;95397.78;5085105;28;20557;-54
2022/10/20 01:20:29;;;;;;;14.60;9.63;;;15.10;88.20;;;15.41;56.00;95401.59;5084464;28;20527;-56
2022/10/20 01:23:36;;;;;;;12.70;9.03;;;15.10;88.30;;;15.39;56.05;95400.06;5070098;28;20945;-55
2022/10/20 01:26:50;;;;;;;14.03;9.53;;;15.10;88.10;;;15.36;55.84;95397.75;5083245;28;20442;-54
2022/10/20 01:29:21;;;;;;;10.23;9.13;;;15.10;87.80;;;15.34;55.49;95392.59;5070866;28;20470;-54
2022/10/20 01:31:53;;;;;;;13.90;9.50;;;15.00;87.40;;;15.32;55.96;95399.03;5087520;28;20454;-56
2022/10/20 01:34:24;;;;;;;9.67;8.20;;;15.00;88.20;;;15.29;56.06;95399.34;5088848;28;20489;-55
2022/10/20 01:36:57;;;;;;;13.07;9.53;;;15.00;88.40;;;15.22;55.72;95397.31;5089492;28;20482;-54
2022/10/20 01:39:28;;;;;;;10.13;9.03;;;15.00;88.40;;;15.19;55.97;95396.81;5088956;28;20982;-55
2022/10/20 01:41:58;;;;;;;11.60;9.30;;;14.90;88.60;;;15.14;56.05;95397.25;5088979;28;21187;-54
2022/10/20 01:44:28;;;;;;;12.40;10.30;;;14.90;88.60;;;15.11;56.10;95399.41;5088587;28;20913;-54
2022/10/20 01:46:55;;;;;;;12.13;9.63;;;14.80;88.50;;;15.06;56.54;95397.22;5088895;28;20476;-54
2022/10/20 01:49:22;;;;;;;21.00;9.80;;;14.80;89.00;;;15.00;56.38;95397.84;5088703;28;20948;-54
2022/10/20 01:51:50;;;;;;;17.73;10.20;;;14.70;89.30;;;14.92;56.71;95403.91;5081084;28;20823;-56
2022/10/20 01:54:22;;;;;;;14.00;10.50;;;14.70;89.90;;;14.85;57.13;95406.31;5088797;28;20465;-54
2022/10/20 01:56:59;;;;;;;14.00;10.80;;;14.60;90.00;;;14.78;57.05;95407.06;5081866;28;21112;-55
2022/10/20 01:59:46;;;;;;;12.23;10.93;;;14.50;90.10;;;14.69;57.37;95412.31;5082247;28;20481;-56
2022/10/20 02:02:35;;;;;;;11.63;10.53;;;14.50;90.30;;;14.62;58.16;95405.94;5079181;28;20446;-55
2022/10/20 02:05:18;;;;;;;16.20;9.63;;;14.40;90.60;;;14.53;58.06;95406.81;5088247;28;20477;-52
2022/10/20 02:07:45;;;;;;;17.03;10.80;;;14.30;90.90;;;14.43;57.55;95414.84;5082239;28;20476;-56
2022/10/20 02:10:17;;;;;;;13.20;11.13;;;14.20;90.70;;;14.34;57.51;95413.94;5087917;28;20845;-54
2022/10/20 02:12:46;;;;;;;15.00;10.77;;;14.10;90.50;;;14.29;57.86;95415.34;5083819;28;20506;-53
2022/10/20 02:15:17;;;;;;;12.67;10.70;;;14.10;90.90;;;14.22;58.04;95420.41;5087943;28;20478;-55
2022/10/20 02:17:45;;;;;;;13.33;10.40;;;14.00;91.00;;;14.18;58.44;95419.03;5084757;28;20534;-56
2022/10/20 02:20:13;;;;;;;11.93;10.20;;;14.00;91.20;;;14.14;58.72;95422.94;5086323;28;20491;-56
2022/10/20 02:22:40;;;;;;;12.87;10.90;;;13.90;91.60;;;14.10;58.81;95426.91;5088765;28;20454;-55
2022/10/20 02:25:10;;;;;;;12.17;10.70;;;13.80;91.80;;;14.04;58.61;95428.31;5088120;28;20535;-55
2022/10/20 02:27:39;;;;;;;12.60;11.07;;;13.80;91.70;;;14.02;58.98;95432.06;5086160;28;20442;-56
2022/10/20 02:30:08;;;;;;;13.03;11.20;;;13.80;92.10;;;13.98;58.98;95431.53;5088494;28;20481;-54
2022/10/20 02:32:38;;;;;;;13.43;10.50;;;13.70;92.10;;;13.92;59.08;95427.66;5087833;28;20616;-53
2022/10/20 02:35:07;;;;;;;14.23;12.40;;;13.70;92.50;;;13.89;59.60;95427.94;5081123;28;20486;-55
2022/10/20 02:37:34;;;;;;;17.57;11.37;;;13.70;92.70;;;13.86;59.41;95441.47;5086972;28;20961;-54
2022/10/20 02:40:01;;;;;;;18.00;11.63;;;13.60;92.70;;;13.81;59.59;95441.09;5087775;28;20474;-56
2022/10/20 02:42:28;;;;;;;12.70;11.40;;;13.60;92.90;;;13.76;60.13;95441.50;5087972;28;20457;-56
2022/10/20 02:44:56;;;;;;;13.70;12.03;;;13.50;93.10;;;13.69;59.94;95450.16;5088115;28;20478;-58
2022/10/20 02:47:23;;;;;;;15.13;10.83;;;13.40;92.80;;;13.60;59.98;95451.84;5080489;28;20836;-55
2022/10/20 02:49:56;;;;;;;18.03;11.10;;;13.40;93.10;;;13.52;60.23;95455.22;5084372;28;20490;-56
2022/10/20 02:52:24;;;;;;;19.43;10.90;;;13.30;93.40;;;13.48;59.69;95453.88;5079226;28;20442;-55
2022/10/20 02:54:51;;;;;;;17.23;10.70;;;13.30;93.40;;;13.45;60.50;95454.16;5086366;28;20477;-56
2022/10/20 02:57:19;;;;;;;14.17;11.07;;;13.20;93.70;;;13.43;60.27;95464.84;5084390;28;21030;-54
2022/10/20 02:59:46;;;;;;;15.77;10.77;;;13.20;93.60;;;13.42;60.45;95454.44;5087295;28;20573;-53
2022/10/20 03:02:13;;;;;;;18.80;11.37;;;13.20;93.40;;;13.42;60.50;95449.97;5087477;28;20458;-54
2022/10/20 03:04:41;;;;;;;17.30;11.03;;;13.20;93.90;;;13.41;60.74;95452.75;5087762;28;20908;-55
2022/10/20 03:07:09;;;;;;;14.63;10.67;;;13.10;94.00;;;13.40;60.15;95454.56;5086674;28;20969;-55
2022/10/20 03:09:36;;;;;;;15.63;11.00;;;13.20;93.80;;;13.40;60.35;95451.94;5086803;28;20470;-54
2022/10/20 03:12:04;;;;;;;12.80;10.00;;;13.20;93.90;;;13.39;60.60;95454.72;5089228;28;20859;-60
2022/10/20 03:14:31;;;;;;;14.73;10.37;;;13.10;94.20;;;13.39;60.59;95465.28;5090038;28;20480;-55
2022/10/20 03:16:59;;;;;;;18.83;11.87;;;13.10;94.10;;;13.37;60.36;95462.78;5086839;28;20486;-55
2022/10/20 03:19:26;;;;;;;20.13;10.70;;;13.10;93.90;;;13.35;61.07;95458.59;5083664;28;20474;-54
2022/10/20 03:21:53;;;;;;;12.33;10.60;;;13.10;94.30;;;13.32;61.03;95454.41;5087396;28;20454;-56
2022/10/20 03:24:22;;;;;;;13.83;10.77;;;13.10;94.50;;;13.29;61.10;95452.03;5085866;28;20526;-55
2022/10/20 03:26:49;;;;;;;12.37;10.70;;;13.10;94.60;;;13.25;60.47;95454.16;5087072;28;20500;-54
2022/10/20 03:29:16;;;;;;;14.33;11.37;;;13.00;94.20;;;13.23;61.32;95460.53;5086829;28;20473;-56
2022/10/20 03:31:44;;;;;;;15.00;9.80;;;13.00;94.90;;;13.20;61.05;95469.59;5086700;28;20526;-55
2022/10/20 03:34:12;;;;;;;12.83;9.87;;;13.00;94.80;;;13.18;61.67;95468.88;5084073;28;20470;-53
2022/10/20 03:36:39;;;;;;;15.80;10.93;;;13.00;95.20;;;13.18;62.37;95468.06;5086348;28;20629;-54
2022/10/20 03:39:06;;;;;;;10.80;9.70;;;12.90;96.00;;;13.17;61.56;95461.94;5086905;28;20515;-54
2022/10/20 03:41:35;;;;;;;11.47;10.20;;;12.90;95.30;;;13.19;61.50;95467.09;5086659;28;20938;-55
2022/10/20 03:44:02;;;;;;;14.03;10.07;;;12.90;95.30;;;13.22;61.38;95477.38;5084561;28;20478;-55
2022/10/20 03:46:30;;;;;;;16.53;11.30;;;13.00;95.20;;;13.23;61.86;95474.59;5086589;28;21001;-55
2022/10/20 03:48:57;;;;;;;18.80;11.97;;;13.00;95.30;;;13.24;61.69;95464.84;5086602;28;20998;-53
2022/10/20 03:51:24;;;;;;;15.07;10.37;;;13.00;95.40;;;13.25;61.78;95477.91;5080857;28;20521;-53
2022/10/20 03:53:51;;;;;;;13.47;10.00;;;13.00;95.70;;;13.25;61.56;95477.09;5085546;28;20587;-56
2022/10/20 03:56:19;;;;;;;15.83;10.77;;;13.00;95.40;;;13.23;62.02;95473.75;5080078;28;20873;-57
2022/10/20 03:58:48;;;;;;;10.57;9.50;;;13.00;95.90;;;13.24;62.12;95472.78;5083066;28;21001;-54
2022/10/20 04:01:16;;;;;;;39.80;10.60;;;13.00;95.90;;;13.24;61.96;95476.25;5085395;28;20970;-55
2022/10/20 04:03:44;;;;;;;11.70;9.53;;;13.00;95.90;;;13.24;61.72;95481.53;5084380;28;21034;-54
2022/10/20 04:06:12;;;;;;;13.67;10.27;;;13.00;95.70;;;13.23;62.02;95479.03;5085399;28;20561;-53
2022/10/20 04:08:39;;;;;;;15.20;9.80;;;13.00;95.70;;;13.22;61.86;95478.19;5085244;28;20986;-53
2022/10/20 04:11:07;;;;;;;14.03;10.07;;;13.00;95.80;;;13.23;61.95;95485.16;5085757;28;20519;-54
2022/10/20 04:13:34;;;;;;;24.17;10.83;;;13.00;95.90;;;13.19;61.58;95483.78;5085970;28;20481;-55
2022/10/20 04:16:03;;;;;;;15.70;10.47;;;13.00;95.60;;;13.21;61.70;95486.28;5083444;28;20977;-54
2022/10/20 04:18:30;;;;;;;12.47;9.90;;;12.90;95.70;;;13.14;61.81;95486.00;5083952;28;20573;-57
2022/10/20 04:20:57;;;;;;;12.77;10.60;;;12.90;95.50;;;13.08;61.50;95484.75;5085503;28;20497;-54
2022/10/20 04:23:25;;;;;;;27.90;10.30;;;12.90;95.50;;;13.03;61.91;95486.16;5085207;28;20527;-54
2022/10/20 04:25:52;;;;;;;14.50;10.40;;;12.80;95.80;;;12.98;61.37;95488.38;5085278;28;20457;-54
2022/10/20 04:28:20;;;;;;;16.30;10.40;;;12.80;95.60;;;12.95;62.10;95484.22;5085089;28;20481;-54
2022/10/20 04:30:47;;;;;;;16.87;11.57;;;12.70;96.00;;;12.94;62.45;95484.34;5084977;28;20446;-55
2022/10/20 04:33:17;;;;;;;14.33;10.40;;;12.70;96.20;;;12.89;61.79;95479.50;5083803;28;20660;-54
2022/10/20 04:35:44;;;;;;;16.50;11.80;;;12.70;95.80;;;12.88;62.06;95485.75;5085300;28;20457;-55
2022/10/20 04:38:11;;;;;;;19.10;12.10;;;12.70;95.80;;;12.84;62.43;95479.91;5085197;28;20490;-53
2022/10/20 04:40:38;;;;;;;15.07;11.47;;;12.60;96.10;;;12.80;62.52;95485.59;5085399;28;20449;-56
2022/10/20 04:43:06;;;;;;;16.17;9.87;;;12.60;96.20;;;12.78;62.12;95491.03;5085049;28;20454;-55
2022/10/20 04:45:33;;;;;;;20.00;11.37;;;12.60;96.20;;;12.76;62.88;95485.03;5076996;28;20450;-55
2022/10/20 04:48:01;;;;;;;31.50;12.80;;;12.50;96.60;;;12.74;62.61;95492.25;5084924;28;20450;-56
2022/10/20 04:50:29;;;;;;;19.47;12.40;;;12.50;96.70;;;12.74;62.96;95492.25;5085772;28;20454;-55
2022/10/20 04:52:58;;;;;;;17.13;11.80;;;12.50;96.80;;;12.73;63.13;95499.34;5081637;28;20469;-55
2022/10/20 04:55:26;;;;;;;21.73;12.10;;;12.50;97.00;;;12.73;63.24;95501.13;5083971;28;20453;-55
2022/10/20 04:57:53;;;;;;;15.07;10.57;;;12.50;97.00;;;12.72;63.16;95504.78;5080369;28;20568;-56
2022/10/20 05:00:21;;;;;;;21.70;12.10;;;12.50;97.10;;;12.71;63.04;95508.38;5083228;28;20880;-56
2022/10/20 05:02:48;;;;;;;15.10;12.00;;;12.50;97.20;;;12.70;63.27;95512.81;5083631;28;20830;-54
2022/10/20 05:05:15;;;;;;;17.67;12.97;;;12.50;97.10;;;12.71;63.01;95516.28;5082725;28;20998;-57
2022/10/20 05:07:44;;;;;;;22.47;12.43;;;12.50;97.10;;;12.73;63.22;95522.25;5087703;28;20450;-55
2022/10/20 05:10:11;;;;;;;24.50;11.00;;;12.50;97.20;;;12.75;63.50;95515.06;5080690;28;20610;-53
2022/10/20 05:12:39;;;;;;;22.40;11.70;;;12.50;97.50;;;12.76;63.26;95526.44;5087452;28;20931;-54
2022/10/20 05:15:07;;;;;;;17.67;11.27;;;12.50;97.40;;;12.79;63.09;95515.59;5089439;28;20474;-55
2022/10/20 05:17:35;;;;;;;15.57;11.20;;;12.50;97.10;;;12.80;63.30;95518.09;5087723;28;20519;-55
2022/10/20 05:20:02;;;;;;;20.70;9.83;;;12.60;97.40;;;12.84;62.86;95518.66;5087650;28;20484;-53
2022/10/20 05:22:31;;;;;;;17.57;11.13;;;12.60;97.20;;;12.87;63.17;95534.22;5082321;28;20446;-54
2022/10/20 05:25:00;;;;;;;15.67;11.23;;;12.60;97.30;;;12.90;63.28;95532.16;5088156;28;20498;-54
2022/10/20 05:27:27;;;;;;;20.50;13.90;;;12.60;97.50;;;12.94;63.21;95538.00;5087703;28;20453;-55
2022/10/20 05:29:54;;;;;;;24.20;12.40;;;12.70;97.40;;;12.98;62.87;95536.75;5088749;28;20573;-55
2022/10/20 05:32:22;;;;;;;20.30;12.43;;;12.80;97.20;;;13.02;62.72;95540.75;5088257;28;21008;-55
2022/10/20 05:34:49;;;;;;;24.47;12.60;;;12.80;97.10;;;13.07;62.54;95550.91;5080659;28;20481;-54
2022/10/20 05:37:16;;;;;;;14.67;10.00;;;12.80;97.10;;;13.14;62.74;95551.22;5088120;28;20579;-55
2022/10/20 05:39:44;;;;;;;12.23;10.70;;;12.90;97.10;;;13.20;63.24;95562.03;5088218;28;20519;-55
2022/10/20 05:42:12;;;;;;;14.47;11.13;;;13.00;97.40;;;13.27;63.26;95564.97;5082770;28;20478;-54
2022/10/20 05:44:40;;;;;;;15.23;11.00;;;13.00;97.30;;;13.35;62.76;95574.88;5086773;28;20473;-56
2022/10/20 05:47:07;;;;;;;27.53;11.40;;;13.10;97.30;;;13.42;62.68;95573.34;5082636;28;20458;-57
2022/10/20 05:49:34;;;;;;;16.00;12.40;;;13.10;97.20;;;13.53;62.60;95585.56;5085243;28;20470;-57
2022/10/20 05:52:02;;;;;;;16.07;12.67;;;13.20;97.10;;;13.70;62.43;95584.84;5081122;28;20460;-54
2022/10/20 05:54:29;;;;;;;20.83;12.20;;;13.40;97.30;;;13.99;62.23;95592.72;5087974;28;20898;-54
2022/10/20 05:56:56;;;;;;;31.13;12.43;;;13.60;97.10;;;14.38;61.65;95593.59;5083063;28;20511;-55
2022/10/20 05:59:25;;;;;;;18.43;12.47;;;13.90;97.00;;;14.80;60.99;95599.25;5082991;28;20531;-54
2022/10/20 06:01:52;;;;;;;17.77;11.83;;;14.30;96.60;;;15.23;59.94;95599.56;5088147;28;21081;-57
2022/10/20 06:04:22;;;;;;;17.77;11.50;;;14.70;96.00;;;15.68;59.08;95611.09;5086812;28;20473;-55
2022/10/20 06:06:49;;;;;;;17.10;10.90;;;15.10;95.60;;;16.11;58.23;95612.94;5075899;28;20978;-53
2022/10/20 06:09:17;;;;;;;15.83;11.07;;;15.50;95.00;;;16.54;57.24;95610.34;5082237;28;20907;-53
2022/10/20 06:11:44;;;;;;;32.20;12.57;;;16.00;94.30;;;17.01;56.95;95617.06;5084588;28;20490;-57
2022/10/20 06:14:11;;;;;;;20.17;12.30;;;16.40;93.70;;;17.46;55.90;95622.94;5084063;28;20998;-55
2022/10/20 06:16:40;;;;;;;17.33;12.13;;;16.90;93.00;;;17.90;54.29;95617.38;5082412;28;20447;-54
2022/10/20 06:19:07;;;;;;;19.50;13.20;;;17.30;92.00;;;18.31;54.42;95622.66;5085416;28;21024;-55
2022/10/20 06:21:35;;;;;;;18.87;12.60;;;17.70;91.40;;;18.71;53.65;95630.72;5084231;28;20450;-55
2022/10/20 06:24:04;;;;;;;17.93;11.80;;;18.10;90.90;;;19.11;53.01;95623.59;5084249;28;20497;-56
2022/10/20 06:26:32;;;;;;;14.40;12.23;;;18.50;90.30;;;19.55;51.96;95640.84;5082175;28;20443;-55
2022/10/20 06:28:59;;;;;;;19.77;11.77;;;18.90;89.20;;;20.00;51.19;95636.53;5084283;28;20501;-55
2022/10/20 06:31:28;;;;;;;13.90;11.10;;;19.30;87.20;;;20.40;50.10;95632.69;5083441;28;20852;-56
2022/10/20 06:33:57;;;;;;;16.03;10.83;;;19.70;85.90;;;20.89;49.32;95639.38;5084600;28;20527;-54
2022/10/20 06:36:24;;;;;;;16.03;10.87;;;20.20;83.80;;;21.36;48.64;95641.81;5081832;28;20453;-55
2022/10/20 06:38:54;;;;;;;21.50;11.40;;;20.60;81.10;;;21.81;47.92;95650.53;5085882;28;20497;-55
2022/10/20 06:41:21;;;;;;;15.03;11.07;;;21.00;80.20;;;22.26;47.02;95643.16;5079025;28;20905;-55
2022/10/20 06:43:48;;;;;;;13.43;10.20;;;21.50;77.50;;;22.70;46.46;95639.34;5084022;28;20969;-54
2022/10/20 06:46:18;;;;;;;12.60;10.97;;;21.90;75.30;;;23.13;45.47;95637.56;5085263;28;20485;-58
2022/10/20 06:48:46;;;;;;;25.10;10.20;;;22.40;74.80;;;23.61;45.86;95633.00;5058369;28;20483;-57
2022/10/20 06:51:17;;;;;;;13.60;10.23;;;22.80;73.60;;;24.09;44.37;95636.59;5065254;28;20527;-56
2022/10/20 06:53:45;;;;;;;17.90;11.67;;;23.30;70.20;;;24.51;43.19;95650.69;5073425;28;20465;-56
2022/10/20 06:56:14;;;;;;;16.67;9.60;;;23.70;67.30;;;24.91;42.40;95647.97;5073401;28;21608;-56
2022/10/20 06:58:43;;;;;;;17.03;10.50;;;24.10;66.70;;;25.35;40.73;95643.72;5080248;28;20998;-56
2022/10/20 07:01:13;;;;;;;12.33;10.23;;;24.50;62.50;;;25.79;41.06;95643.09;5071542;28;20975;-55
2022/10/20 07:03:40;;;;;;;20.20;9.23;;;25.00;62.90;;;26.22;40.30;95645.94;5074590;28;20478;-56
2022/10/20 07:06:08;;;;;;;19.37;11.77;;;25.60;61.00;;;26.66;39.20;95654.09;5067077;28;20811;-55
2022/10/20 07:08:37;;;;;;;18.83;11.07;;;26.10;58.20;;;27.05;37.56;95653.94;5079053;28;20473;-56
2022/10/20 07:11:05;;;;;;;21.17;10.67;;;26.50;56.00;;;27.41;37.85;95653.16;5068495;28;20658;-58
2022/10/20 07:13:33;;;;;;;12.90;9.93;;;27.00;55.40;;;27.62;37.39;95651.00;5077451;28;20534;-56
2022/10/20 07:16:00;;;;;;;10.50;9.10;;;27.30;54.30;;;27.76;36.95;95649.78;5071543;28;20916;-57
2022/10/20 07:18:28;;;;;;;13.53;9.37;;;27.50;54.00;;;27.99;33.98;95646.38;5069197;28;20488;-56
2022/10/20 07:20:57;;;;;;;11.40;9.73;;;27.80;50.10;;;28.14;35.89;95651.34;5070254;28;20484;-56
2022/10/20 07:23:25;;;;;;;20.00;10.87;;;28.00;52.00;;;28.38;32.96;95648.69;5072640;28;20476;-55
2022/10/20 07:25:59;;;;;;;12.33;9.57;;;28.30;48.60;;;28.54;34.89;95656.13;5075857;28;20538;-54
2022/10/20 07:28:27;;;;;;;19.47;10.80;;;28.50;49.90;;;28.74;34.63;95649.59;5062925;28;20474;-54
2022/10/20 07:30:54;;;;;;;13.13;9.30;;;28.70;49.10;;;28.87;33.62;95649.34;5074845;28;20477;-56
2022/10/20 07:33:22;;;;;;;18.47;10.50;;;29.00;48.70;;;28.95;33.40;95659.84;5068985;28;20578;-55
2022/10/20 07:35:49;;;;;;;26.17;9.80;;;29.10;47.70;;;28.95;31.73;95657.13;5076612;28;20648;-53
2022/10/20 07:38:16;;;;;;;10.60;9.40;;;29.10;45.10;;;28.65;33.09;95649.13;5066564;28;20503;-55
2022/10/20 07:40:43;;;;;;;13.87;9.67;;;28.80;45.90;;;28.05;33.15;95650.84;5072370;28;20453;-54
2022/10/20 07:43:12;;;;;;;10.77;9.77;;;28.30;46.60;;;27.25;32.81;95642.91;5065534;28;20449;-55
2022/10/20 07:45:39;;;;;;;18.57;9.70;;;27.60;46.00;;;26.69;34.48;95642.88;5074317;28;20802;-57
2022/10/20 07:48:08;;;;;;;14.30;9.20;;;26.90;47.20;;;26.43;34.92;95652.00;5069692;28;20834;-54
2022/10/20 07:50:36;;;;;;;17.80;9.63;;;26.40;48.30;;;26.19;34.88;95649.06;5075512;28;20462;-54
2022/10/20 07:53:03;;;;;;;18.03;9.00;;;26.10;48.80;;;26.19;34.53;95640.16;5064958;28;20515;-54
2022/10/20 07:55:31;;;;;;;15.77;8.90;;;25.90;48.20;;;25.98;34.95;95655.66;5069575;28;20552;-56
2022/10/20 07:57:58;;;;;;;12.23;9.87;;;25.70;50.10;;;25.64;35.06;95652.28;5065371;28;20489;-54
2022/10/20 08:00:27;;;;;;;12.70;8.67;;;25.30;49.50;;;25.32;35.76;95646.84;5068091;28;20469;-53
2022/10/20 08:02:56;;;;;;;10.03;9.03;;;25.10;49.80;;;25.36;36.35;95653.44;5069180;28;20939;-56
2022/10/20 08:05:23;;;;;;;21.60;8.00;;;25.00;50.30;;;25.69;35.81;95652.47;5067675;28;20478;-55
2022/10/20 08:07:51;;;;;;;13.00;8.50;;;25.20;50.40;;;26.11;35.28;95652.84;5071050;28;20454;-54
2022/10/20 08:10:18;;;;;;;12.77;8.70;;;25.40;50.10;;;26.55;34.75;95654.81;5068081;28;20479;-55
2022/10/20 08:12:46;;;;;;;11.43;7.37;;;25.80;49.30;;;26.88;33.79;95651.84;5070650;28;20451;-55
2022/10/20 08:15:13;;;;;;;9.23;7.30;;;26.20;48.40;;;27.18;33.37;95649.22;5068338;28;20473;-54
2022/10/20 08:17:42;;;;;;;10.20;7.87;;;26.40;47.60;;;27.39;33.28;95655.25;5074970;28;20597;-55
2022/10/20 08:20:11;;;;;;;12.10;6.87;;;26.70;47.60;;;27.63;31.50;95650.78;5064756;28;20469;-55
2022/10/20 08:22:38;;;;;;;16.97;7.50;;;26.90;46.00;;;27.83;31.40;95642.41;5073198;28;20484;-57
2022/10/20 08:25:07;;;;;;;14.20;6.23;;;27.10;44.80;;;27.87;31.64;95649.00;5069819;28;20559;-55
2022/10/20 08:27:34;;;;;;;11.63;6.97;;;27.20;45.40;;;27.99;30.51;95645.53;5073623;28;20947;-55
2022/10/20 08:30:01;;;;;;;12.60;6.37;;;27.40;44.50;;;28.07;31.92;95642.50;5068473;28;20473;-59
2022/10/20 08:32:29;;;;;;;7.43;6.60;;;27.40;45.40;;;28.35;31.58;95649.16;5070424;28;20474;-55
2022/10/20 08:34:57;;;;;;;11.60;6.40;;;27.60;45.50;;;28.68;30.38;95645.13;5070512;28;20834;-54
2022/10/20 08:37:25;;;;;;;8.17;6.13;;;28.00;43.90;;;28.94;30.73;95647.34;5071538;28;20544;-54
2022/10/20 08:39:52;;;;;;;6.30;5.53;;;28.20;44.60;;;29.26;31.16;95648.88;5074058;28;20458;-55
2022/10/20 08:42:19;;;;;;;12.83;6.33;;;28.50;44.20;;;29.55;30.11;95646.22;5066948;28;20495;-56
2022/10/20 08:44:47;;;;;;;25.77;6.03;;;28.80;44.00;;;29.78;29.65;95639.88;5075843;28;20465;-55
2022/10/20 08:47:23;;;;;;;6.17;5.57;;;29.10;43.30;;;29.83;30.12;95632.69;5064735;28;20560;-55
2022/10/20 08:49:50;;;;;;;13.33;5.50;;;29.20;43.00;;;29.89;27.91;95636.31;5077184;28;20527;-55
2022/10/20 08:52:19;;;;;;;6.67;4.80;;;29.30;40.50;;;29.79;28.47;95641.50;5072612;28;20519;-56
2022/10/20 08:54:47;;;;;;;5.43;5.00;;;29.20;40.80;;;29.65;27.40;95627.41;5079023;28;20505;-55
2022/10/20 08:57:21;;;;;;;12.17;5.37;;;29.10;39.40;;;29.43;27.73;95635.41;5065779;28;20450;-55
2022/10/20 08:59:51;;;;;;;11.20;4.87;;;28.90;39.80;;;29.28;28.39;95638.59;5076602;28;20488;-56
2022/10/20 09:02:18;;;;;;;5.70;4.40;;;28.80;40.60;;;29.27;28.29;95636.97;5062562;28;21011;-56
2022/10/20 09:04:50;;;;;;;8.00;5.07;;;28.70;40.80;;;29.37;27.85;95641.78;5077295;28;20477;-54
2022/10/20 09:07:25;;;;;;;11.33;4.43;;;28.70;40.20;;;29.06;27.89;95636.47;5067331;28;21004;-54
2022/10/20 09:09:53;;;;;;;93.73;8.97;;;28.50;40.40;;;28.67;28.95;95632.63;5072373;28;20465;-54
2022/10/20 09:12:20;;;;;;;57.90;7.30;;;28.20;40.30;;;28.26;28.79;95633.28;5066846;28;21070;-56
2022/10/20 09:14:48;;;;;;;35.87;6.97;;;27.90;40.20;;;28.05;28.78;95637.31;5060744;28;20482;-54
2022/10/20 09:17:17;;;;;;;11.80;4.73;;;27.70;40.20;;;28.11;29.57;95641.00;5075927;28;20449;-56
2022/10/20 09:19:47;;;;;;;27.33;5.30;;;27.60;41.20;;;28.15;28.19;95642.19;5067115;28;20497;-55
2022/10/20 09:22:14;;;;;;;47.53;6.87;;;27.60;40.30;;;28.34;29.30;95639.41;5081086;28;20433;-57
2022/10/20 09:24:43;;;;;;;10.90;4.53;;;27.70;41.40;;;28.66;28.75;95644.50;5076203;28;20473;-56
2022/10/20 09:27:23;;;;;;;13.23;4.53;;;27.90;39.90;;;28.85;26.96;95653.38;5065055;28;20462;-54
2022/10/20 09:29:50;;;;;;;9.43;4.00;;;28.10;39.80;;;29.02;27.34;95642.63;5074290;28;20867;-56
2022/10/20 09:32:21;;;;;;;12.17;4.70;;;28.30;39.10;;;28.97;27.33;95644.16;5074039;28;20983;-55
2022/10/20 09:34:49;;;;;;;3.73;3.30;;;28.30;38.70;;;28.94;27.95;95639.22;5078666;28;20815;-53
2022/10/20 09:37:18;;;;;;;5.50;3.67;;;28.30;38.60;;;29.06;27.62;95647.31;5083262;28;20503;-57
2022/10/20 09:39:52;;;;;;;3.60;3.27;;;28.40;39.50;;;29.33;27.72;95636.84;5071537;28;20576;-55
2022/10/20 09:42:20;;;;;;;3.83;3.13;;;28.60;39.30;;;29.61;27.06;95645.25;5083711;28;20445;-56
2022/10/20 09:44:50;;;;;;;5.83;3.10;;;28.90;39.10;;;29.82;26.25;95639.19;5077503;28;20469;-57
2022/10/20 09:47:17;;;;;;;5.43;3.13;;;29.10;37.70;;;29.89;27.01;95633.59;5084760;28;20522;-56
2022/10/20 09:49:44;;;;;;;5.97;3.63;;;29.20;38.20;;;29.95;25.27;95632.63;5084387;28;20484;-57
2022/10/20 09:52:18;;;;;;;4.20;3.90;;;29.30;36.90;;;29.93;25.85;95634.78;5080143;28;20464;-56
2022/10/20 09:54:47;;;;;;;5.17;3.60;;;29.40;37.50;;;29.89;25.40;95630.91;5086456;28;20828;-55
2022/10/20 09:57:18;;;;;;;4.17;3.40;;;29.30;36.20;;;29.89;26.53;95635.50;5089022;28;20454;-55
2022/10/20 09:59:46;;;;;;;3.30;2.80;;;29.30;37.40;;;30.01;25.24;95623.53;5088019;28;20886;-54
2022/10/20 10:02:31;;;;;;;4.57;3.20;;;29.40;36.00;;;29.92;24.49;95633.13;5088181;28;20811;-55
2022/10/20 10:05:15;;;;;;;3.37;3.07;;;29.30;35.00;;;29.67;26.13;95639.69;5085513;28;21153;-55
2022/10/20 10:07:42;;;;;;;10.83;3.50;;;29.20;36.60;;;29.66;25.77;95626.38;5082821;28;20449;-56
2022/10/20 10:10:25;;;;;;;5.27;3.37;;;29.10;36.70;;;29.49;24.61;95629.81;5088692;28;20466;-55
2022/10/20 10:12:54;;;;;;;3.47;3.17;;;29.00;35.10;;;29.36;26.62;95618.44;5086847;28;20934;-55
2022/10/20 10:15:28;;;;;;;4.30;2.93;;;28.80;36.80;;;29.45;25.44;95623.25;5080904;28;20961;-57
2022/10/20 10:17:55;;;;;;;8.83;3.83;;;28.80;36.70;;;29.55;25.47;95619.91;5084603;28;20441;-55
2022/10/20 10:20:40;;;;;;;6.87;3.20;;;28.90;36.50;;;29.54;24.93;95618.25;5080759;28;20965;-56